createdAt,value
2023-03-22T00:01:48.397Z,16.40
2023-03-22T00:04:18.837Z,13.18
2023-03-22T00:06:53.003Z,13.60
2023-03-22T00:09:21.558Z,15.88
2023-03-22T00:12:21.567Z,26.90
2023-03-22T00:14:52.338Z,30.50
2023-03-22T00:17:32.239Z,29.83
2023-03-22T00:20:01.560Z,23.98
2023-03-22T00:22:29.987Z,25.40
2023-03-22T00:24:59.400Z,22.42
2023-03-22T00:27:28.792Z,29.40
2023-03-22T00:30:01.018Z,29.15
2023-03-22T00:32:37.415Z,26.85
2023-03-22T00:35:08.056Z,25.20
2023-03-22T00:37:39.830Z,25.85
2023-03-22T00:40:18.339Z,26.20
2023-03-22T00:42:46.791Z,23.73
2023-03-22T00:45:16.695Z,18.48
2023-03-22T00:47:47.555Z,17.98
2023-03-22T00:50:15.876Z,16.15
2023-03-22T00:52:50.474Z,17.58
2023-03-22T00:55:47.652Z,16.27
2023-03-22T00:58:16.136Z,20.13
2023-03-22T01:00:50.925Z,22.33
2023-03-22T01:03:23.185Z,22.67
2023-03-22T01:05:55.638Z,22.00
2023-03-22T01:08:39.179Z,21.73
2023-03-22T01:11:09.288Z,15.43
2023-03-22T01:13:41.924Z,29.20
2023-03-22T01:16:11.507Z,17.88
2023-03-22T01:18:42.010Z,22.15
2023-03-22T01:21:15.046Z,18.70
2023-03-22T01:24:02.579Z,16.88
2023-03-22T01:26:35.876Z,13.98
2023-03-22T01:29:04.898Z,16.38
2023-03-22T01:31:35.217Z,15.32
2023-03-22T01:34:06.480Z,15.88
2023-03-22T01:36:36.141Z,21.42
2023-03-22T01:39:06.154Z,16.17
2023-03-22T01:41:37.689Z,19.15
2023-03-22T01:44:17.642Z,20.17
2023-03-22T01:46:51.512Z,19.75
2023-03-22T01:49:27.480Z,18.63
2023-03-22T01:52:00.438Z,20.33
2023-03-22T01:55:03.301Z,15.07
2023-03-22T01:57:47.339Z,19.30
2023-03-22T02:01:12.288Z,19.38
2023-03-22T02:03:52.435Z,17.70
2023-03-22T02:06:25.604Z,13.52
2023-03-22T02:09:29.957Z,22.65
2023-03-22T02:12:12.410Z,15.48
2023-03-22T02:15:05.308Z,15.00
2023-03-22T02:18:11.541Z,19.75
2023-03-22T02:21:14.177Z,19.23
2023-03-22T02:24:23.685Z,19.10
2023-03-22T02:27:38.270Z,19.83
2023-03-22T02:30:33.047Z,15.93
2023-03-22T02:33:36.981Z,18.60
2023-03-22T02:36:24.766Z,17.92
2023-03-22T02:39:14.009Z,19.88
2023-03-22T02:42:08.525Z,21.52
2023-03-22T02:44:43.433Z,16.42
2023-03-22T02:47:23.474Z,17.85
2023-03-22T02:49:58.350Z,24.60
2023-03-22T02:52:34.962Z,21.98
2023-03-22T02:55:12.280Z,19.98
2023-03-22T02:57:49.354Z,21.20
2023-03-22T03:00:21.114Z,19.50
2023-03-22T03:02:53.855Z,24.35
2023-03-22T03:05:24.816Z,21.35
2023-03-22T03:08:01.706Z,28.15
2023-03-22T03:10:35.096Z,25.95
2023-03-22T03:13:03.611Z,23.65
2023-03-22T03:15:34.258Z,25.30
2023-03-22T03:18:20.458Z,21.38
2023-03-22T03:21:02.515Z,21.90
2023-03-22T03:23:41.559Z,18.73
2023-03-22T03:26:21.574Z,14.70
2023-03-22T03:28:57.279Z,15.48
2023-03-22T03:31:33.219Z,18.83
2023-03-22T03:34:11.053Z,21.70
2023-03-22T03:36:47.524Z,20.65
2023-03-22T03:39:19.490Z,17.45
2023-03-22T03:41:53.141Z,19.48
2023-03-22T03:44:23.081Z,16.33
2023-03-22T03:46:54.187Z,17.40
2023-03-22T03:49:24.854Z,17.17
2023-03-22T03:51:55.116Z,18.10
2023-03-22T03:54:25.140Z,17.70
2023-03-22T03:56:56.045Z,15.27
2023-03-22T03:59:25.431Z,15.02
2023-03-22T04:01:56.149Z,14.38
2023-03-22T04:04:31.018Z,12.90
2023-03-22T04:07:04.822Z,17.45
2023-03-22T04:09:41.383Z,15.30
2023-03-22T04:12:38.616Z,17.52
2023-03-22T04:15:19.853Z,15.40
2023-03-22T04:17:54.018Z,28.92
2023-03-22T04:20:32.852Z,20.33
2023-03-22T04:23:03.480Z,24.05
2023-03-22T04:25:34.102Z,25.13
2023-03-22T04:28:13.762Z,25.63
2023-03-22T04:30:45.876Z,26.10
2023-03-22T04:33:23.190Z,18.15
2023-03-22T04:36:11.558Z,17.13
2023-03-22T04:39:01.149Z,23.17
2023-03-22T04:42:33.577Z,20.98
2023-03-22T04:45:13.026Z,20.85
2023-03-22T04:47:53.931Z,19.48
2023-03-22T04:51:16.299Z,17.65
2023-03-22T04:54:00.230Z,26.00
2023-03-22T04:56:30.774Z,44.17
2023-03-22T05:00:07.438Z,29.20
2023-03-22T05:03:31.432Z,21.92
2023-03-22T05:06:09.233Z,23.85
2023-03-22T05:09:02.746Z,20.42
2023-03-22T05:12:28.692Z,31.38
2023-03-22T05:16:16.678Z,25.52
2023-03-22T05:18:54.523Z,25.30
2023-03-22T05:21:28.699Z,26.58
2023-03-22T05:24:52.231Z,20.25
2023-03-22T05:27:31.674Z,22.65
2023-03-22T05:30:21.921Z,16.70
2023-03-22T05:33:03.290Z,20.48
2023-03-22T05:36:00.807Z,34.83
2023-03-22T05:41:07.136Z,22.15
2023-03-22T05:44:14.800Z,24.75
2023-03-22T05:47:20.569Z,19.42
2023-03-22T05:50:25.439Z,18.40
2023-03-22T05:53:47.432Z,21.38
2023-03-22T05:56:24.427Z,17.75
2023-03-22T05:59:12.956Z,19.77
2023-03-22T06:01:43.962Z,17.38
2023-03-22T06:04:23.588Z,17.75
2023-03-22T06:06:59.804Z,18.38
2023-03-22T06:09:42.626Z,18.92
2023-03-22T06:12:18.730Z,16.80
2023-03-22T06:15:03.596Z,20.13
2023-03-22T06:17:34.135Z,19.85
2023-03-22T06:20:36.877Z,19.65
2023-03-22T06:23:39.692Z,16.25
2023-03-22T06:26:12.164Z,19.55
2023-03-22T06:28:43.519Z,16.27
2023-03-22T06:31:22.757Z,18.27
2023-03-22T06:34:02.913Z,16.77
2023-03-22T06:36:41.113Z,16.38
2023-03-22T06:40:12.109Z,21.83
2023-03-22T06:42:43.923Z,16.23
2023-03-22T06:45:17.243Z,16.80
2023-03-22T06:47:48.395Z,17.60
2023-03-22T06:51:01.018Z,24.10
2023-03-22T06:53:35.434Z,20.50
2023-03-22T06:56:46.348Z,18.85
2023-03-22T06:59:45.714Z,17.50
2023-03-22T07:02:15.786Z,16.67
2023-03-22T07:05:29.675Z,19.13
2023-03-22T07:08:03.434Z,20.27
2023-03-22T07:10:34.675Z,18.33
2023-03-22T07:13:07.243Z,20.75
2023-03-22T07:15:44.009Z,20.73
2023-03-22T07:18:36.844Z,22.13
2023-03-22T07:21:32.542Z,18.80
2023-03-22T07:24:55.627Z,20.08
2023-03-22T07:27:36.584Z,18.05
2023-03-22T07:31:10.142Z,20.92
2023-03-22T07:33:55.366Z,25.02
2023-03-22T07:36:26.888Z,18.65
2023-03-22T07:38:57.811Z,18.52
2023-03-22T07:41:31.753Z,20.85
2023-03-22T07:44:33.085Z,15.48
2023-03-22T07:47:40.748Z,19.75
2023-03-22T07:50:42.303Z,16.55
2023-03-22T07:53:11.569Z,17.08
2023-03-22T07:55:44.310Z,20.08
2023-03-22T07:58:14.944Z,20.73
2023-03-22T08:00:53.521Z,22.15
2023-03-22T08:03:50.266Z,20.35
2023-03-22T08:06:37.081Z,31.75
2023-03-22T08:09:16.996Z,25.95
2023-03-22T08:11:45.610Z,27.45
2023-03-22T08:14:18.556Z,31.70
2023-03-22T08:16:51.552Z,32.70
2023-03-22T08:19:26.028Z,44.83
2023-03-22T08:22:04.264Z,43.05
2023-03-22T08:24:58.911Z,27.27
2023-03-22T08:27:36.893Z,30.48
2023-03-22T08:30:56.978Z,21.40
2023-03-22T08:33:31.062Z,16.88
2023-03-22T08:36:13.383Z,15.35
2023-03-22T08:38:51.831Z,14.60
2023-03-22T08:41:32.880Z,18.50
2023-03-22T08:44:07.276Z,17.42
2023-03-22T08:46:50.116Z,15.73
2023-03-22T08:49:18.572Z,13.15
2023-03-22T08:52:24.621Z,14.75
2023-03-22T08:55:17.579Z,15.73
2023-03-22T08:58:06.516Z,14.18
2023-03-22T09:01:00.000Z,16.15
2023-03-22T09:04:33.621Z,15.27
2023-03-22T09:07:06.124Z,15.48
2023-03-22T09:10:25.403Z,16.20
2023-03-22T09:12:55.514Z,16.80
2023-03-22T09:15:25.378Z,14.30
2023-03-22T09:18:49.456Z,17.67
2023-03-22T09:25:44.099Z,15.80
2023-03-22T09:28:14.967Z,17.85
2023-03-22T09:30:44.994Z,16.95
2023-03-22T09:33:21.971Z,16.38
2023-03-22T09:35:55.511Z,13.88
2023-03-22T09:39:22.819Z,24.08
2023-03-22T09:42:00.725Z,17.40
2023-03-22T09:44:36.224Z,16.80
2023-03-22T09:47:14.960Z,15.63
2023-03-22T09:49:53.693Z,14.98
2023-03-22T09:52:52.658Z,17.45
2023-03-22T09:55:30.673Z,15.60
2023-03-22T09:58:08.961Z,15.60
2023-03-22T10:00:47.138Z,17.33
2023-03-22T10:03:27.229Z,19.55
2023-03-22T10:06:19.133Z,15.35
2023-03-22T10:13:22.786Z,16.80
2023-03-22T10:15:56.819Z,17.85
2023-03-22T10:18:52.968Z,17.38
2023-03-22T10:21:37.123Z,17.38
2023-03-22T10:24:16.241Z,17.98
2023-03-22T10:27:00.451Z,20.17
2023-03-22T10:29:58.690Z,21.23
2023-03-22T10:32:51.117Z,16.77
2023-03-22T10:35:30.757Z,14.45
2023-03-22T10:38:04.783Z,17.65
2023-03-22T10:41:32.103Z,18.20
2023-03-22T10:45:19.025Z,16.35
2023-03-22T10:48:00.251Z,16.30
2023-03-22T10:50:33.318Z,17.25
2023-03-22T10:53:05.800Z,19.17
2023-03-22T10:55:43.533Z,23.55
2023-03-22T10:58:17.498Z,16.60
2023-03-22T11:00:49.835Z,15.55
2023-03-22T11:03:42.942Z,16.73
2023-03-22T11:07:09.165Z,16.05
2023-03-22T11:09:39.519Z,17.98
2023-03-22T11:12:17.402Z,15.48
2023-03-22T11:14:47.032Z,17.27
2023-03-22T11:17:19.820Z,16.88
2023-03-22T11:19:56.231Z,17.02
2023-03-22T11:22:32.127Z,16.33
2023-03-22T11:31:57.443Z,16.63
2023-03-22T11:34:32.496Z,13.85
2023-03-22T11:37:09.639Z,15.52
2023-03-22T11:39:49.650Z,16.27
2023-03-22T11:42:22.280Z,15.50
2023-03-22T11:44:57.470Z,16.08
2023-03-22T11:47:38.300Z,17.63
2023-03-22T11:50:10.696Z,17.27
2023-03-22T11:53:44.592Z,17.75
2023-03-22T11:56:23.139Z,15.30
2023-03-22T11:59:04.459Z,15.63
2023-03-22T12:02:03.555Z,19.00
2023-03-22T12:04:40.053Z,16.30
2023-03-22T12:07:16.880Z,15.93
2023-03-22T12:10:00.248Z,14.73
2023-03-22T12:12:57.299Z,18.35
2023-03-22T12:15:41.684Z,15.43
2023-03-22T12:18:17.338Z,15.40
2023-03-22T12:20:55.018Z,16.90
2023-03-22T12:23:30.732Z,14.02
2023-03-22T12:28:56.520Z,16.27
2023-03-22T12:31:33.467Z,14.93
2023-03-22T12:38:35.599Z,21.95
2023-03-22T12:41:33.713Z,15.25
2023-03-22T12:44:15.084Z,16.30
2023-03-22T12:46:50.773Z,17.90
2023-03-22T12:52:54.903Z,12.45
2023-03-22T12:55:55.728Z,13.85
2023-03-22T12:58:52.298Z,19.48
2023-03-22T13:01:52.992Z,14.32
2023-03-22T13:05:23.817Z,16.05
2023-03-22T13:07:55.437Z,14.00
2023-03-22T13:11:00.044Z,13.15
2023-03-22T13:13:45.560Z,13.43
2023-03-22T13:16:48.758Z,13.25
2023-03-22T13:19:38.010Z,12.15
2023-03-22T13:22:19.418Z,14.75
2023-03-22T13:25:27.172Z,12.32
2023-03-22T13:27:58.625Z,15.88
2023-03-22T13:39:03.122Z,12.88
2023-03-22T13:42:08.393Z,8.32
2023-03-22T13:44:46.200Z,13.55
2023-03-22T13:47:47.093Z,13.48
2023-03-22T13:51:04.821Z,11.77
2023-03-22T13:54:04.852Z,3.80
2023-03-22T13:56:52.907Z,4.00
2023-03-22T13:59:27.274Z,3.58
2023-03-22T14:02:18.871Z,4.38
2023-03-22T14:04:56.207Z,6.32
2023-03-22T14:07:46.249Z,7.85
2023-03-22T14:10:25.143Z,5.57
2023-03-22T14:13:18.819Z,7.10
2023-03-22T14:16:59.669Z,5.75
2023-03-22T14:20:41.098Z,7.38
